EZS29PL LSGG-LIRN
Flight info
| Callsign | EZS29PL |
|---|---|
| Flight time | N/A |
| Altitude | 21000 |
| Route | MEDAM DCT NITAM/N0429F350 DCT MOGBO DCT SOVAN/N0430F370 DCT RITEB DCT EVULI DCT ERIKA |
| Aircraft | A20N/M-SDE2E3FGHIRWXY/LB1 |
Departure
| Time | N/A |
|---|---|
| Airport | Geneva International Airport (LSGG) |
Arrival
| Time | 2026-05-04 18:25 |
|---|---|
| Airport | Naples International Airport (LIRN) |
| Time | Latitude | Longitude | Altitude | Speed | Heading |
|---|---|---|---|---|---|
| 2026-05-04 16:59 | 45.97411 | 6.19984 | 18583 ft | 376 kts | 139° |
| 2026-05-04 17:00 | 45.89113 | 6.29357 | 20030 ft | 382 kts | 146° |
| 2026-05-04 17:00 | 45.82698 | 6.36063 | 20035 ft | 379 kts | 146° |
| 2026-05-04 17:01 | 45.78433 | 6.40543 | 20028 ft | 380 kts | 146° |
| 2026-05-04 17:01 | 45.74173 | 6.45016 | 20028 ft | 379 kts | 146° |
| 2026-05-04 17:02 | 45.69946 | 6.49452 | 20025 ft | 379 kts | 146° |
| 2026-05-04 17:02 | 45.65686 | 6.53919 | 20028 ft | 379 kts | 146° |
| 2026-05-04 17:03 | 45.63562 | 6.56143 | 20028 ft | 379 kts | 147° |
| 2026-05-04 17:03 | 45.61432 | 6.58373 | 20056 ft | 379 kts | 147° |
| 2026-05-04 17:03 | 45.57135 | 6.62863 | 20707 ft | 384 kts | 147° |
| 2026-05-04 17:04 | 45.52839 | 6.67356 | 21053 ft | 386 kts | 147° |
| 2026-05-04 17:04 | 45.48495 | 6.71888 | 21092 ft | 387 kts | 147° |
| 2026-05-04 17:05 | 45.44153 | 6.76395 | 21085 ft | 386 kts | 148° |
| 2026-05-04 17:05 | 45.39754 | 6.80788 | 21092 ft | 387 kts | 148° |
| 2026-05-04 17:06 | 45.35359 | 6.85161 | 21107 ft | 385 kts | 148° |
| 2026-05-04 17:06 | 45.33164 | 6.87350 | 21119 ft | 385 kts | 148° |
| 2026-05-04 17:07 | 45.28772 | 6.91731 | 21110 ft | 385 kts | 148° |
| 2026-05-04 17:07 | 45.27323 | 6.93186 | 21113 ft | 385 kts | 147° |
| 2026-05-04 17:07 | 45.24598 | 6.96560 | 21110 ft | 391 kts | 139° |
| 2026-05-04 17:07 | 45.22650 | 6.99263 | 21115 ft | 392 kts | 139° |
| 2026-05-04 17:08 | 45.20696 | 7.01965 | 21114 ft | 392 kts | 139° |
| 2026-05-04 17:08 | 45.16813 | 7.07309 | 21111 ft | 391 kts | 140° |
| 2026-05-04 17:08 | 45.14854 | 7.09996 | 21106 ft | 392 kts | 140° |
| 2026-05-04 17:09 | 45.12892 | 7.12683 | 21103 ft | 392 kts | 140° |
| 2026-05-04 17:09 | 45.10965 | 7.15418 | 21102 ft | 395 kts | 135° |
| 2026-05-04 17:09 | 45.09259 | 7.18485 | 21104 ft | 398 kts | 128° |
| 2026-05-04 17:10 | 45.06096 | 7.24909 | 21099 ft | 397 kts | 129° |
| 2026-05-04 17:10 | 45.01330 | 7.34491 | 21104 ft | 397 kts | 129° |
| 2026-05-04 17:11 | 44.99735 | 7.37687 | 21100 ft | 398 kts | 129° |
| 2026-05-04 17:11 | 44.98165 | 7.40842 | 21101 ft | 398 kts | 127° |
| 2026-05-04 17:11 | 44.95208 | 7.47472 | 21101 ft | 399 kts | 126° |
| 2026-05-04 17:12 | 44.93735 | 7.50785 | 21098 ft | 399 kts | 126° |
| 2026-05-04 17:12 | 44.90783 | 7.57426 | 21102 ft | 399 kts | 126° |
| 2026-05-04 17:13 | 44.86351 | 7.67374 | 21096 ft | 399 kts | 126° |
| 2026-05-04 17:14 | 44.81900 | 7.77321 | 21092 ft | 399 kts | 126° |
| 2026-05-04 17:14 | 44.80416 | 7.80629 | 21089 ft | 399 kts | 126° |
| 2026-05-04 17:14 | 44.77443 | 7.87243 | 21088 ft | 399 kts | 126° |
| 2026-05-04 17:15 | 44.75977 | 7.90498 | 21084 ft | 399 kts | 126° |
| 2026-05-04 17:15 | 44.72997 | 7.97103 | 21083 ft | 399 kts | 126° |
| 2026-05-04 17:16 | 44.70012 | 8.03705 | 21083 ft | 401 kts | 126° |
| 2026-05-04 17:16 | 44.65523 | 8.13607 | 21081 ft | 401 kts | 126° |
| 2026-05-04 17:17 | 44.64024 | 8.16907 | 21079 ft | 401 kts | 126° |
| 2026-05-04 17:17 | 44.59520 | 8.26796 | 21078 ft | 400 kts | 126° |
| 2026-05-04 17:18 | 44.58017 | 8.30087 | 21080 ft | 400 kts | 126° |
| 2026-05-04 17:18 | 44.55028 | 8.36624 | 21076 ft | 401 kts | 126° |
| 2026-05-04 17:19 | 44.52012 | 8.43206 | 21080 ft | 401 kts | 126° |
| 2026-05-04 17:19 | 44.48995 | 8.49775 | 21084 ft | 400 kts | 126° |
| 2026-05-04 17:20 | 44.45978 | 8.56327 | 21091 ft | 400 kts | 126° |
| 2026-05-04 17:20 | 44.42956 | 8.62876 | 21096 ft | 401 kts | 126° |
| 2026-05-04 17:20 | 44.41442 | 8.66150 | 21098 ft | 401 kts | 126° |
| 2026-05-04 17:21 | 44.38433 | 8.72650 | 21093 ft | 401 kts | 126° |
| 2026-05-04 17:21 | 44.35384 | 8.79217 | 21097 ft | 402 kts | 126° |
| 2026-05-04 17:22 | 44.33864 | 8.82488 | 21094 ft | 402 kts | 126° |
| 2026-05-04 17:22 | 44.32340 | 8.85765 | 21108 ft | 402 kts | 126° |
| 2026-05-04 17:23 | 44.27759 | 8.95587 | 21072 ft | 402 kts | 126° |
| 2026-05-04 17:23 | 44.26234 | 8.98848 | 21074 ft | 401 kts | 126° |
| 2026-05-04 17:23 | 44.23186 | 9.05357 | 21073 ft | 403 kts | 126° |
| 2026-05-04 17:24 | 44.21653 | 9.08627 | 21072 ft | 403 kts | 126° |
| 2026-05-04 17:24 | 44.17036 | 9.18446 | 21074 ft | 404 kts | 126° |
| 2026-05-04 17:25 | 44.15499 | 9.21709 | 21069 ft | 404 kts | 126° |
| 2026-05-04 17:25 | 44.12413 | 9.28246 | 21074 ft | 404 kts | 126° |
| 2026-05-04 17:26 | 44.09820 | 9.33730 | 21075 ft | 404 kts | 126° |
| 2026-05-04 17:26 | 44.05199 | 9.43476 | 21073 ft | 404 kts | 126° |
| 2026-05-04 17:27 | 44.02098 | 9.49997 | 21068 ft | 406 kts | 126° |
| 2026-05-04 17:27 | 43.98978 | 9.56542 | 21079 ft | 406 kts | 126° |
| 2026-05-04 17:28 | 43.95859 | 9.63074 | 21082 ft | 406 kts | 126° |
| 2026-05-04 17:29 | 43.91169 | 9.72865 | 21088 ft | 406 kts | 126° |
| 2026-05-04 17:29 | 43.86473 | 9.82636 | 21084 ft | 406 kts | 126° |
| 2026-05-04 17:30 | 43.81780 | 9.92366 | 21086 ft | 407 kts | 126° |
| 2026-05-04 17:31 | 43.78626 | 9.98888 | 21081 ft | 407 kts | 126° |
| 2026-05-04 17:31 | 43.73884 | 10.08668 | 21081 ft | 408 kts | 126° |
| 2026-05-04 17:32 | 43.70718 | 10.15178 | 21092 ft | 408 kts | 126° |
| 2026-05-04 17:33 | 43.65968 | 10.24958 | 21089 ft | 410 kts | 126° |
| 2026-05-04 17:33 | 43.64370 | 10.28232 | 21100 ft | 409 kts | 126° |
| 2026-05-04 17:34 | 43.59591 | 10.37941 | 21103 ft | 409 kts | 126° |
| 2026-05-04 17:34 | 43.57993 | 10.41191 | 21098 ft | 409 kts | 126° |
| 2026-05-04 17:35 | 43.53193 | 10.50950 | 21098 ft | 410 kts | 126° |
| 2026-05-04 17:35 | 43.49982 | 10.57458 | 21100 ft | 410 kts | 126° |
| 2026-05-04 17:35 | 43.48373 | 10.60715 | 21105 ft | 411 kts | 126° |
| 2026-05-04 17:36 | 43.46768 | 10.63961 | 21102 ft | 410 kts | 126° |
| 2026-05-04 17:36 | 43.45159 | 10.67210 | 21100 ft | 411 kts | 126° |
| 2026-05-04 17:36 | 43.43565 | 10.70426 | 21103 ft | 410 kts | 126° |
| 2026-05-04 17:36 | 43.41954 | 10.73672 | 21100 ft | 410 kts | 126° |
| 2026-05-04 17:37 | 43.40345 | 10.76911 | 21106 ft | 410 kts | 126° |
| 2026-05-04 17:37 | 43.38732 | 10.80153 | 21107 ft | 411 kts | 126° |
| 2026-05-04 17:37 | 43.37119 | 10.83393 | 21103 ft | 411 kts | 126° |
| 2026-05-04 17:37 | 43.35506 | 10.86630 | 21105 ft | 411 kts | 126° |
| 2026-05-04 17:38 | 43.33891 | 10.89866 | 21108 ft | 410 kts | 127° |
| 2026-05-04 17:38 | 43.32276 | 10.93099 | 21110 ft | 411 kts | 127° |
| 2026-05-04 17:38 | 43.30661 | 10.96327 | 21113 ft | 410 kts | 127° |
| 2026-05-04 17:38 | 43.29041 | 10.99564 | 21116 ft | 411 kts | 127° |
| 2026-05-04 17:39 | 43.25820 | 11.05986 | 21108 ft | 411 kts | 127° |
| 2026-05-04 17:39 | 43.24199 | 11.09214 | 21111 ft | 411 kts | 127° |
| 2026-05-04 17:39 | 43.22577 | 11.12441 | 21117 ft | 410 kts | 127° |
| 2026-05-04 17:40 | 43.20954 | 11.15666 | 21115 ft | 411 kts | 127° |
| 2026-05-04 17:40 | 43.19330 | 11.18888 | 21110 ft | 411 kts | 127° |
| 2026-05-04 17:40 | 43.17703 | 11.22114 | 21108 ft | 410 kts | 127° |
| 2026-05-04 17:40 | 43.16079 | 11.25328 | 21122 ft | 411 kts | 127° |
| 2026-05-04 17:41 | 43.14450 | 11.28550 | 21116 ft | 411 kts | 127° |
| 2026-05-04 17:41 | 43.12821 | 11.31766 | 21112 ft | 411 kts | 127° |
| 2026-05-04 17:41 | 43.11184 | 11.34996 | 21120 ft | 412 kts | 127° |
| 2026-05-04 17:41 | 43.09553 | 11.38212 | 21111 ft | 412 kts | 127° |
| 2026-05-04 17:42 | 43.07918 | 11.41434 | 21107 ft | 412 kts | 127° |
| 2026-05-04 17:42 | 43.06283 | 11.44649 | 21121 ft | 412 kts | 127° |
| 2026-05-04 17:42 | 43.04666 | 11.47825 | 21107 ft | 412 kts | 127° |
| 2026-05-04 17:42 | 43.03026 | 11.51046 | 21119 ft | 411 kts | 127° |
| 2026-05-04 17:43 | 43.01390 | 11.54254 | 21119 ft | 412 kts | 127° |
| 2026-05-04 17:43 | 42.99769 | 11.57428 | 21112 ft | 412 kts | 127° |
| 2026-05-04 17:43 | 42.98131 | 11.60632 | 21120 ft | 411 kts | 127° |
| 2026-05-04 17:43 | 42.96490 | 11.63838 | 21114 ft | 411 kts | 127° |
| 2026-05-04 17:44 | 42.94851 | 11.67039 | 21117 ft | 411 kts | 127° |
| 2026-05-04 17:44 | 42.93204 | 11.70249 | 21125 ft | 414 kts | 127° |
| 2026-05-04 17:44 | 42.91553 | 11.73466 | 21113 ft | 414 kts | 127° |
| 2026-05-04 17:44 | 42.89923 | 11.76644 | 21126 ft | 414 kts | 127° |
| 2026-05-04 17:45 | 42.88273 | 11.79855 | 21122 ft | 412 kts | 127° |
| 2026-05-04 17:45 | 42.86623 | 11.83064 | 21118 ft | 413 kts | 127° |
| 2026-05-04 17:45 | 42.84976 | 11.86264 | 21116 ft | 412 kts | 127° |
| 2026-05-04 17:45 | 42.83302 | 11.89512 | 21121 ft | 413 kts | 127° |
| 2026-05-04 17:46 | 42.81689 | 11.92689 | 21121 ft | 413 kts | 126° |
| 2026-05-04 17:46 | 42.80072 | 11.95932 | 21117 ft | 414 kts | 126° |
| 2026-05-04 17:46 | 42.78463 | 11.99169 | 21133 ft | 412 kts | 126° |
| 2026-05-04 17:46 | 42.76855 | 12.02398 | 21135 ft | 412 kts | 126° |
| 2026-05-04 17:47 | 42.75243 | 12.05625 | 21130 ft | 413 kts | 126° |
| 2026-05-04 17:47 | 42.73629 | 12.08847 | 21129 ft | 412 kts | 126° |
| 2026-05-04 17:47 | 42.72011 | 12.12073 | 21129 ft | 413 kts | 126° |
| 2026-05-04 17:47 | 42.70392 | 12.15295 | 21129 ft | 412 kts | 126° |
| 2026-05-04 17:48 | 42.68863 | 12.18596 | 21130 ft | 413 kts | 122° |
| 2026-05-04 17:48 | 42.67390 | 12.21955 | 21133 ft | 413 kts | 122° |
| 2026-05-04 17:48 | 42.65917 | 12.25309 | 21133 ft | 413 kts | 122° |
| 2026-05-04 17:48 | 42.64442 | 12.28659 | 21133 ft | 413 kts | 122° |
| 2026-05-04 17:49 | 42.62965 | 12.32009 | 21132 ft | 413 kts | 122° |
| 2026-05-04 17:49 | 42.61486 | 12.35356 | 21128 ft | 413 kts | 122° |
| 2026-05-04 17:49 | 42.60007 | 12.38700 | 21130 ft | 413 kts | 122° |
| 2026-05-04 17:49 | 42.58527 | 12.42041 | 21126 ft | 413 kts | 122° |
| 2026-05-04 17:50 | 42.57067 | 12.45335 | 21132 ft | 413 kts | 122° |
| 2026-05-04 17:50 | 42.55586 | 12.48671 | 21130 ft | 413 kts | 122° |
| 2026-05-04 17:50 | 42.54103 | 12.52008 | 21125 ft | 413 kts | 122° |
| 2026-05-04 17:50 | 42.52616 | 12.55349 | 21129 ft | 414 kts | 122° |
| 2026-05-04 17:51 | 42.51127 | 12.58692 | 21128 ft | 414 kts | 122° |
| 2026-05-04 17:51 | 42.49639 | 12.62031 | 21128 ft | 414 kts | 122° |
| 2026-05-04 17:51 | 42.48150 | 12.65367 | 21131 ft | 414 kts | 122° |
| 2026-05-04 17:51 | 42.46660 | 12.68701 | 21130 ft | 414 kts | 122° |
| 2026-05-04 17:52 | 42.45170 | 12.72031 | 21133 ft | 414 kts | 122° |
| 2026-05-04 17:52 | 42.43679 | 12.75361 | 21128 ft | 412 kts | 122° |
| 2026-05-04 17:52 | 42.42187 | 12.78688 | 21129 ft | 414 kts | 123° |
| 2026-05-04 17:52 | 42.40694 | 12.82014 | 21130 ft | 414 kts | 123° |
| 2026-05-04 17:53 | 42.39198 | 12.85342 | 21131 ft | 414 kts | 123° |
| 2026-05-04 17:53 | 42.37664 | 12.88749 | 21130 ft | 432 kts | 123° |
| 2026-05-04 17:53 | 42.36066 | 12.92290 | 21132 ft | 449 kts | 123° |
| 2026-05-04 17:53 | 42.34431 | 12.95916 | 21130 ft | 463 kts | 123° |
| 2026-05-04 17:54 | 42.32745 | 12.99649 | 21129 ft | 466 kts | 122° |
| 2026-05-04 17:54 | 42.31056 | 13.03390 | 21132 ft | 465 kts | 122° |
| 2026-05-04 17:54 | 42.29366 | 13.07126 | 21132 ft | 465 kts | 123° |
| 2026-05-04 17:54 | 42.27676 | 13.10856 | 21131 ft | 465 kts | 123° |
| 2026-05-04 17:55 | 42.25983 | 13.14587 | 21132 ft | 466 kts | 122° |
| 2026-05-04 17:55 | 42.24286 | 13.18322 | 21137 ft | 467 kts | 123° |
| 2026-05-04 17:55 | 42.22585 | 13.22059 | 21132 ft | 467 kts | 123° |
| 2026-05-04 17:55 | 42.20894 | 13.25772 | 21134 ft | 466 kts | 123° |
| 2026-05-04 17:56 | 42.19194 | 13.29499 | 21134 ft | 467 kts | 123° |
| 2026-05-04 17:56 | 42.17403 | 13.33133 | 21133 ft | 466 kts | 128° |
| 2026-05-04 17:56 | 42.15354 | 13.36438 | 21125 ft | 464 kts | 135° |
| 2026-05-04 17:56 | 42.13035 | 13.39466 | 21125 ft | 463 kts | 139° |
| 2026-05-04 17:57 | 42.10679 | 13.42430 | 21124 ft | 463 kts | 139° |
| 2026-05-04 17:57 | 42.08327 | 13.45403 | 21124 ft | 463 kts | 139° |
| 2026-05-04 17:57 | 42.05980 | 13.48373 | 21126 ft | 463 kts | 139° |
| 2026-05-04 17:57 | 42.03624 | 13.51351 | 21121 ft | 464 kts | 138° |
| 2026-05-04 17:58 | 42.01270 | 13.54325 | 21121 ft | 464 kts | 138° |
| 2026-05-04 17:58 | 41.98918 | 13.57293 | 21121 ft | 464 kts | 138° |
| 2026-05-04 17:58 | 41.96560 | 13.60264 | 21127 ft | 464 kts | 138° |
| 2026-05-04 17:58 | 41.94205 | 13.63228 | 21127 ft | 464 kts | 138° |
| 2026-05-04 17:59 | 41.91876 | 13.66156 | 21121 ft | 464 kts | 138° |
| 2026-05-04 17:59 | 41.89516 | 13.69121 | 21122 ft | 464 kts | 139° |
| 2026-05-04 17:59 | 41.84796 | 13.75039 | 21127 ft | 464 kts | 139° |
| 2026-05-04 18:00 | 41.82433 | 13.77997 | 21129 ft | 465 kts | 138° |
| 2026-05-04 18:00 | 41.80064 | 13.80959 | 21127 ft | 464 kts | 139° |
| 2026-05-04 18:00 | 41.77699 | 13.83914 | 21127 ft | 464 kts | 139° |
| 2026-05-04 18:00 | 41.75332 | 13.86868 | 21136 ft | 466 kts | 139° |
| 2026-05-04 18:01 | 41.72956 | 13.89828 | 21128 ft | 465 kts | 138° |
| 2026-05-04 18:01 | 41.70587 | 13.92778 | 21127 ft | 465 kts | 139° |
| 2026-05-04 18:01 | 41.68216 | 13.95728 | 21128 ft | 465 kts | 139° |
| 2026-05-04 18:02 | 41.63509 | 14.01575 | 21133 ft | 464 kts | 139° |
| 2026-05-04 18:02 | 41.61214 | 14.04606 | 21134 ft | 466 kts | 134° |
| 2026-05-04 18:02 | 41.59016 | 14.07807 | 21115 ft | 466 kts | 134° |
| 2026-05-04 18:02 | 41.56845 | 14.10981 | 21025 ft | 458 kts | 134° |
| 2026-05-04 18:03 | 41.54700 | 14.14112 | 20405 ft | 457 kts | 134° |
| 2026-05-04 18:03 | 41.52540 | 14.17252 | 19434 ft | 461 kts | 134° |
| 2026-05-04 18:03 | 41.50358 | 14.20416 | 18547 ft | 463 kts | 134° |
| 2026-05-04 18:03 | 41.48186 | 14.23560 | 17862 ft | 457 kts | 134° |
| 2026-05-04 18:04 | 41.46047 | 14.26653 | 17171 ft | 449 kts | 134° |
| 2026-05-04 18:04 | 41.43941 | 14.29697 | 16473 ft | 444 kts | 134° |
| 2026-05-04 18:04 | 41.39544 | 14.35281 | 15105 ft | 431 kts | 140° |
| 2026-05-04 18:05 | 41.37325 | 14.37866 | 14442 ft | 426 kts | 140° |
| 2026-05-04 18:05 | 41.35086 | 14.40476 | 13773 ft | 420 kts | 140° |
| 2026-05-04 18:05 | 41.32798 | 14.42843 | 13042 ft | 414 kts | 147° |
| 2026-05-04 18:05 | 41.30406 | 14.44828 | 12385 ft | 407 kts | 151° |
| 2026-05-04 18:06 | 41.25083 | 14.46679 | 10904 ft | 395 kts | 183° |
| 2026-05-04 18:06 | 41.22415 | 14.46046 | 10265 ft | 388 kts | 200° |
| 2026-05-04 18:06 | 41.20040 | 14.44433 | 9556 ft | 382 kts | 217° |
| 2026-05-04 18:07 | 41.18169 | 14.41981 | 8845 ft | 378 kts | 233° |
| 2026-05-04 18:07 | 41.16576 | 14.39225 | 8113 ft | 374 kts | 225° |
| 2026-05-04 18:07 | 41.14503 | 14.37177 | 7409 ft | 372 kts | 207° |
| 2026-05-04 18:07 | 41.12058 | 14.36104 | 6724 ft | 370 kts | 189° |
| 2026-05-04 18:08 | 41.09510 | 14.36139 | 6076 ft | 367 kts | 171° |
| 2026-05-04 18:08 | 41.07126 | 14.37271 | 5425 ft | 363 kts | 151° |
| 2026-05-04 18:08 | 41.05169 | 14.39364 | 4758 ft | 362 kts | 131° |
| 2026-05-04 18:08 | 41.03901 | 14.42202 | 4311 ft | 356 kts | 110° |
| 2026-05-04 18:09 | 41.04035 | 14.48284 | 4126 ft | 324 kts | 65° |
| 2026-05-04 18:09 | 41.07097 | 14.51943 | 4140 ft | 286 kts | 17° |
| 2026-05-04 18:10 | 41.08961 | 14.52516 | 4139 ft | 270 kts | 12° |
| 2026-05-04 18:10 | 41.10663 | 14.53423 | 4568 ft | 259 kts | 30° |
| 2026-05-04 18:10 | 41.12063 | 14.54849 | 5352 ft | 252 kts | 44° |
| 2026-05-04 18:10 | 41.13221 | 14.56558 | 6183 ft | 248 kts | 52° |
| 2026-05-04 18:11 | 41.14247 | 14.58424 | 6279 ft | 252 kts | 56° |
| 2026-05-04 18:11 | 41.15187 | 14.60365 | 6207 ft | 249 kts | 58° |
| 2026-05-04 18:11 | 41.16081 | 14.62322 | 5932 ft | 247 kts | 59° |
| 2026-05-04 18:11 | 41.16968 | 14.64283 | 5538 ft | 249 kts | 59° |
| 2026-05-04 18:12 | 41.17871 | 14.66268 | 5447 ft | 251 kts | 59° |
| 2026-05-04 18:12 | 41.18779 | 14.68245 | 5617 ft | 251 kts | 59° |
| 2026-05-04 18:12 | 41.19676 | 14.70193 | 5623 ft | 240 kts | 59° |
| 2026-05-04 18:12 | 41.20474 | 14.72036 | 5651 ft | 221 kts | 69° |
| 2026-05-04 18:13 | 41.20634 | 14.73996 | 5625 ft | 212 kts | 104° |
| 2026-05-04 18:13 | 41.19947 | 14.75667 | 5621 ft | 206 kts | 139° |
| 2026-05-04 18:13 | 41.17537 | 14.77724 | 5627 ft | 206 kts | 151° |
| 2026-05-04 18:14 | 41.16330 | 14.78703 | 5625 ft | 205 kts | 150° |
| 2026-05-04 18:14 | 41.15151 | 14.79664 | 5626 ft | 194 kts | 151° |
| 2026-05-04 18:14 | 41.13928 | 14.80350 | 5626 ft | 191 kts | 176° |
| 2026-05-04 18:15 | 41.11812 | 14.78650 | 5634 ft | 190 kts | 238° |
| 2026-05-04 18:15 | 41.10707 | 14.76155 | 5630 ft | 190 kts | 238° |
| 2026-05-04 18:15 | 41.10016 | 14.74660 | 5634 ft | 190 kts | 238° |
| 2026-05-04 18:16 | 41.09322 | 14.73176 | 5631 ft | 189 kts | 238° |
| 2026-05-04 18:16 | 41.08627 | 14.71692 | 5634 ft | 190 kts | 238° |
| 2026-05-04 18:16 | 41.07937 | 14.70221 | 5631 ft | 188 kts | 238° |
| 2026-05-04 18:17 | 41.06548 | 14.67257 | 5636 ft | 189 kts | 238° |
| 2026-05-04 18:17 | 41.05856 | 14.65782 | 5628 ft | 185 kts | 238° |
| 2026-05-04 18:17 | 41.04614 | 14.63134 | 5633 ft | 169 kts | 237° |
| 2026-05-04 18:18 | 41.03990 | 14.61805 | 5629 ft | 169 kts | 237° |
| 2026-05-04 18:18 | 41.03372 | 14.60486 | 5632 ft | 169 kts | 237° |
| 2026-05-04 18:18 | 41.02751 | 14.59163 | 5631 ft | 169 kts | 237° |
| 2026-05-04 18:18 | 41.02131 | 14.57842 | 5520 ft | 169 kts | 237° |
| 2026-05-04 18:19 | 41.00895 | 14.55210 | 5025 ft | 167 kts | 237° |
| 2026-05-04 18:19 | 41.00287 | 14.53914 | 4777 ft | 165 kts | 237° |
| 2026-05-04 18:19 | 40.99687 | 14.52637 | 4527 ft | 165 kts | 236° |
| 2026-05-04 18:20 | 40.99085 | 14.51355 | 4276 ft | 164 kts | 237° |
| 2026-05-04 18:20 | 40.98476 | 14.50059 | 4034 ft | 165 kts | 237° |
| 2026-05-04 18:20 | 40.97873 | 14.48775 | 3791 ft | 163 kts | 237° |
| 2026-05-04 18:20 | 40.97276 | 14.47505 | 3549 ft | 162 kts | 237° |
| 2026-05-04 18:21 | 40.96679 | 14.46236 | 3314 ft | 162 kts | 237° |
| 2026-05-04 18:21 | 40.96081 | 14.44965 | 3067 ft | 163 kts | 237° |
| 2026-05-04 18:21 | 40.95495 | 14.43719 | 2831 ft | 155 kts | 237° |
| 2026-05-04 18:21 | 40.94934 | 14.42525 | 2603 ft | 153 kts | 238° |
| 2026-05-04 18:22 | 40.94371 | 14.41330 | 2379 ft | 150 kts | 238° |
| 2026-05-04 18:22 | 40.93821 | 14.40160 | 2157 ft | 150 kts | 238° |
| 2026-05-04 18:22 | 40.93268 | 14.38984 | 1936 ft | 151 kts | 238° |
| 2026-05-04 18:22 | 40.92733 | 14.37849 | 1712 ft | 141 kts | 239° |
| 2026-05-04 18:23 | 40.92222 | 14.36762 | 1507 ft | 140 kts | 240° |
| 2026-05-04 18:23 | 40.91706 | 14.35667 | 1300 ft | 140 kts | 240° |
| 2026-05-04 18:23 | 40.91187 | 14.34565 | 1085 ft | 142 kts | 239° |
| 2026-05-04 18:23 | 40.90665 | 14.33456 | 819 ft | 141 kts | 239° |
| 2026-05-04 18:24 | 40.90145 | 14.32373 | 611 ft | 138 kts | 239° |
| 2026-05-04 18:24 | 40.89647 | 14.31307 | 477 ft | 136 kts | 240° |
| 2026-05-04 18:24 | 40.89164 | 14.30266 | 285 ft | 126 kts | 241° |
| 2026-05-04 18:24 | 40.88756 | 14.29397 | 254 ft | 78 kts | 237° |
| 2026-05-04 18:25 | 40.88628 | 14.29125 | 266 ft | 0 kts | 238° |
| 2026-05-04 18:25 | 40.88597 | 14.29060 | 268 ft | 17 kts | 239° |
| 2026-05-04 18:25 | 40.88542 | 14.28932 | 274 ft | 15 kts | 238° |
| 2026-05-04 18:25 | 40.88485 | 14.28827 | 279 ft | 12 kts | 237° |
| 2026-05-04 18:26 | 40.88431 | 14.28756 | 282 ft | 9 kts | 184° |
| 2026-05-04 18:26 | 40.88375 | 14.28794 | 280 ft | 11 kts | 166° |
| 2026-05-04 18:26 | 40.88340 | 14.28820 | 280 ft | 0 kts | 150° |
| 2026-05-04 18:27 | 40.88333 | 14.28825 | 280 ft | 3 kts | 148° |
| 2026-05-04 18:27 | 40.88306 | 14.28850 | 279 ft | 6 kts | 146° |
| 2026-05-04 18:27 | 40.88286 | 14.28868 | 279 ft | 1 kts | 147° |
| 2026-05-04 18:27 | 40.88278 | 14.28875 | 279 ft | 1 kts | 145° |
| 2026-05-04 18:28 | 40.88263 | 14.28888 | 279 ft | 5 kts | 147° |
| 2026-05-04 18:28 | 40.88251 | 14.28897 | 279 ft | 2 kts | 150° |
| 2026-05-04 18:28 | 40.88231 | 14.28903 | 280 ft | 3 kts | 189° |
| 2026-05-04 18:28 | 40.88211 | 14.28887 | 280 ft | 3 kts | 227° |
| 2026-05-04 18:29 | 40.88200 | 14.28865 | 281 ft | 2 kts | 246° |
| 2026-05-04 18:29 | 40.88201 | 14.28847 | 282 ft | 2 kts | 283° |
| 2026-05-04 18:29 | 40.88210 | 14.28834 | 282 ft | 3 kts | 310° |
| 2026-05-04 18:29 | 40.88230 | 14.28814 | 282 ft | 5 kts | 328° |
| 2026-05-04 18:30 | 40.88235 | 14.28810 | 282 ft | 0 kts | 328° |